createdAt,value
2019-02-17T00:02:11.333Z,25.23
2019-02-17T00:04:38.619Z,21.67
2019-02-17T00:07:06.263Z,19.27
2019-02-17T00:09:33.391Z,33.00
2019-02-17T00:12:00.640Z,34.30
2019-02-17T00:14:27.987Z,27.03
2019-02-17T00:16:55.183Z,31.93
2019-02-17T00:19:22.400Z,29.07
2019-02-17T00:21:49.770Z,22.77
2019-02-17T00:24:16.966Z,34.73
2019-02-17T00:26:44.406Z,32.43
2019-02-17T00:29:11.752Z,43.53
2019-02-17T00:31:39.044Z,24.67
2019-02-17T00:34:06.250Z,36.53
2019-02-17T00:36:33.611Z,41.80
2019-02-17T00:39:00.921Z,47.03
2019-02-17T00:41:28.265Z,29.30
2019-02-17T00:43:55.584Z,32.43
2019-02-17T00:46:22.848Z,36.17
2019-02-17T00:48:50.147Z,40.17
2019-02-17T00:51:17.354Z,34.37
2019-02-17T00:53:44.711Z,34.33
2019-02-17T00:56:11.919Z,27.70
2019-02-17T00:58:39.347Z,29.40
2019-02-17T01:01:06.539Z,34.17
2019-02-17T01:03:33.792Z,40.40
2019-02-17T01:06:01.095Z,31.37
2019-02-17T01:08:28.454Z,34.03
2019-02-17T01:10:55.653Z,30.03
2019-02-17T01:13:22.860Z,34.13
2019-02-17T01:15:50.316Z,33.00
2019-02-17T01:18:17.666Z,23.23
2019-02-17T01:20:45.011Z,18.73
2019-02-17T01:23:12.307Z,34.80
2019-02-17T01:25:39.536Z,25.23
2019-02-17T01:28:06.841Z,27.00
2019-02-17T01:30:34.183Z,43.27
2019-02-17T01:33:01.383Z,27.67
2019-02-17T01:35:28.485Z,37.70
2019-02-17T01:37:55.830Z,38.97
2019-02-17T01:40:23.171Z,25.00
2019-02-17T01:42:50.414Z,31.47
2019-02-17T01:45:17.753Z,41.57
2019-02-17T01:47:45.206Z,43.57
2019-02-17T01:50:12.617Z,38.77
2019-02-17T01:52:40.067Z,38.77
2019-02-17T01:55:07.426Z,41.40
2019-02-17T01:57:34.774Z,35.03
2019-02-17T02:00:02.183Z,39.23
2019-02-17T02:02:29.441Z,39.47
2019-02-17T02:04:56.671Z,33.27
2019-02-17T02:07:24.152Z,27.93
2019-02-17T02:09:51.555Z,28.30
2019-02-17T02:12:18.779Z,42.13
2019-02-17T02:14:46.179Z,34.93
2019-02-17T02:17:13.406Z,32.57
2019-02-17T02:19:40.771Z,34.13
2019-02-17T02:22:08.375Z,42.97
2019-02-17T02:24:35.587Z,35.57
2019-02-17T02:27:03.010Z,32.37
2019-02-17T02:29:40.445Z,32.60
2019-02-17T02:31:59.310Z,27.47
2019-02-17T02:34:26.630Z,39.63
2019-02-17T02:36:53.929Z,34.00
2019-02-17T02:39:21.177Z,26.67
2019-02-17T02:41:48.369Z,38.60
2019-02-17T02:44:15.689Z,26.97
2019-02-17T02:46:42.997Z,43.43
2019-02-17T02:49:10.342Z,39.13
2019-02-17T02:51:37.577Z,30.37
2019-02-17T02:54:04.900Z,42.13
2019-02-17T02:56:32.095Z,47.33
2019-02-17T02:58:59.324Z,31.73
2019-02-17T03:01:26.635Z,39.90
2019-02-17T03:03:53.900Z,37.33
2019-02-17T03:06:37.784Z,31.17
2019-02-17T03:09:05.456Z,41.30
2019-02-17T03:11:32.783Z,51.03
2019-02-17T03:14:00.033Z,43.33
2019-02-17T03:16:27.319Z,43.80
2019-02-17T03:18:54.556Z,42.03
2019-02-17T03:21:21.891Z,43.70
2019-02-17T03:23:49.134Z,38.57
2019-02-17T03:26:16.378Z,39.67
2019-02-17T03:28:43.729Z,40.03
2019-02-17T03:31:11.045Z,36.97
2019-02-17T03:33:38.379Z,42.13
2019-02-17T03:36:05.668Z,42.17
2019-02-17T03:38:32.823Z,29.97
2019-02-17T03:41:00.101Z,41.60
2019-02-17T03:43:27.456Z,43.00
2019-02-17T03:45:54.705Z,35.30
2019-02-17T03:48:22.002Z,42.17
2019-02-17T03:50:49.238Z,40.57
2019-02-17T03:53:16.548Z,33.90
2019-02-17T03:55:44.401Z,30.77
2019-02-17T03:58:11.692Z,31.57
2019-02-17T04:00:39.028Z,37.90
2019-02-17T04:03:06.358Z,41.67
2019-02-17T04:05:33.690Z,43.10
2019-02-17T04:08:01.041Z,40.10
2019-02-17T04:10:28.300Z,43.83
2019-02-17T04:12:55.496Z,41.67
2019-02-17T04:15:22.911Z,44.13
2019-02-17T04:17:50.253Z,41.60
2019-02-17T04:20:17.543Z,37.77
2019-02-17T04:22:44.796Z,42.23
2019-02-17T04:25:12.203Z,40.80
2019-02-17T04:27:39.640Z,33.30
2019-02-17T04:30:06.975Z,36.30
2019-02-17T04:32:34.183Z,45.17
2019-02-17T04:35:01.517Z,27.40
2019-02-17T04:37:28.707Z,37.10
2019-02-17T04:39:56.056Z,36.20
2019-02-17T04:42:23.357Z,40.97
2019-02-17T04:44:50.577Z,37.43
2019-02-17T04:47:17.680Z,36.60
2019-02-17T04:49:44.931Z,37.73
2019-02-17T04:52:12.364Z,41.77
2019-02-17T04:54:39.718Z,39.23
2019-02-17T04:57:07.017Z,40.47
2019-02-17T04:59:34.343Z,44.40
2019-02-17T05:02:01.534Z,40.47
2019-02-17T05:04:29.296Z,38.70
2019-02-17T05:06:56.503Z,46.37
2019-02-17T05:09:23.733Z,44.70
2019-02-17T05:11:51.067Z,39.70
2019-02-17T05:14:18.308Z,35.63
2019-02-17T05:16:45.640Z,30.90
2019-02-17T05:19:12.877Z,39.17
2019-02-17T05:21:40.100Z,37.30
2019-02-17T05:24:07.500Z,39.17
2019-02-17T05:26:34.733Z,38.23
2019-02-17T05:29:02.041Z,37.87
2019-02-17T05:31:29.275Z,39.77
2019-02-17T05:33:56.581Z,42.07
2019-02-17T05:36:23.903Z,38.23
2019-02-17T05:38:51.108Z,38.50
2019-02-17T05:41:18.339Z,39.03
2019-02-17T05:43:45.696Z,38.57
2019-02-17T05:46:13.854Z,36.67
2019-02-17T05:48:41.196Z,35.13
2019-02-17T05:51:08.408Z,35.57
2019-02-17T05:53:35.739Z,33.40
2019-02-17T05:56:03.037Z,33.97
2019-02-17T05:58:30.363Z,32.40
2019-02-17T06:01:03.841Z,39.23
2019-02-17T06:03:26.594Z,36.00
2019-02-17T06:05:53.980Z,34.47
2019-02-17T06:08:21.621Z,35.73
2019-02-17T06:10:49.585Z,37.60
2019-02-17T06:13:16.891Z,32.23
2019-02-17T06:15:44.036Z,31.13
2019-02-17T06:18:11.384Z,37.03
2019-02-17T06:20:38.744Z,36.07
2019-02-17T06:23:06.047Z,32.40
2019-02-17T06:25:33.385Z,37.33
2019-02-17T06:28:00.703Z,32.50
2019-02-17T06:30:27.928Z,37.03
2019-02-17T06:32:55.144Z,28.67
2019-02-17T06:35:22.482Z,27.60
2019-02-17T06:37:49.828Z,35.93
2019-02-17T06:40:17.124Z,38.57
2019-02-17T06:42:44.491Z,27.60
2019-02-17T06:45:11.783Z,39.70
2019-02-17T06:47:39.057Z,25.27
2019-02-17T06:50:07.544Z,29.70
2019-02-17T06:52:34.787Z,31.00
2019-02-17T06:55:21.767Z,31.77
2019-02-17T06:57:49.175Z,28.90
2019-02-17T07:00:23.474Z,28.77
2019-02-17T07:02:50.689Z,32.20
2019-02-17T07:05:37.671Z,29.50
2019-02-17T07:08:05.111Z,27.37
2019-02-17T07:10:32.353Z,26.80
2019-02-17T07:12:59.726Z,29.90
2019-02-17T07:15:27.043Z,28.67
2019-02-17T07:17:54.378Z,27.40
2019-02-17T07:20:21.589Z,30.57
2019-02-17T07:22:48.931Z,23.47
2019-02-17T07:25:16.214Z,29.00
2019-02-17T07:27:43.287Z,27.53
2019-02-17T07:30:10.600Z,28.57
2019-02-17T07:32:37.986Z,26.43
2019-02-17T07:35:05.287Z,25.20
2019-02-17T07:37:33.786Z,27.70
2019-02-17T07:40:01.484Z,25.40
2019-02-17T07:42:28.791Z,28.40
2019-02-17T07:44:56.031Z,29.07
2019-02-17T07:47:23.508Z,29.90
2019-02-17T07:49:50.858Z,24.80
2019-02-17T07:52:18.078Z,25.40
2019-02-17T07:54:45.295Z,22.60
2019-02-17T07:57:12.542Z,25.80
2019-02-17T07:59:39.862Z,27.33
2019-02-17T08:02:07.149Z,23.27
2019-02-17T08:04:34.489Z,21.83
2019-02-17T08:07:01.798Z,22.63
2019-02-17T08:09:29.024Z,19.50
2019-02-17T08:11:56.306Z,18.57
2019-02-17T08:14:23.624Z,17.10
2019-02-17T08:16:50.919Z,17.40
2019-02-17T08:19:18.076Z,16.70
2019-02-17T08:21:45.173Z,17.97
2019-02-17T08:24:12.492Z,12.80
2019-02-17T08:26:39.844Z,17.43
2019-02-17T08:29:07.054Z,18.17
2019-02-17T08:31:34.363Z,13.80
2019-02-17T08:34:01.699Z,19.23
2019-02-17T08:36:28.902Z,13.60
2019-02-17T08:38:56.461Z,15.80
2019-02-17T08:41:23.547Z,14.90
2019-02-17T08:43:50.800Z,12.80
2019-02-17T08:46:18.144Z,10.13
2019-02-17T08:48:45.290Z,13.73
2019-02-17T08:51:12.388Z,15.20
2019-02-17T08:53:39.616Z,13.77
2019-02-17T08:56:06.905Z,11.27
2019-02-17T08:58:34.224Z,14.80
2019-02-17T09:01:01.539Z,13.50
2019-02-17T09:03:28.887Z,11.30
2019-02-17T09:05:56.218Z,15.30
2019-02-17T09:08:23.508Z,14.50
2019-02-17T09:10:50.764Z,11.27
2019-02-17T09:13:18.555Z,13.63
2019-02-17T09:15:45.999Z,10.93
2019-02-17T09:18:13.346Z,9.40
2019-02-17T09:20:40.656Z,14.50
2019-02-17T09:23:07.875Z,11.40
2019-02-17T09:25:35.180Z,7.67
2019-02-17T09:28:02.532Z,9.17
2019-02-17T09:30:29.873Z,8.70
2019-02-17T09:32:57.183Z,7.17
2019-02-17T09:35:24.337Z,9.03
2019-02-17T09:37:51.670Z,7.13
2019-02-17T09:40:18.976Z,7.97
2019-02-17T09:42:46.207Z,9.20
2019-02-17T09:45:13.557Z,9.07
2019-02-17T09:47:40.799Z,9.63
2019-02-17T09:50:09.964Z,10.63
2019-02-17T09:52:37.197Z,13.20
2019-02-17T09:55:04.848Z,11.47
2019-02-17T09:57:32.158Z,12.97
2019-02-17T09:59:59.463Z,12.13
2019-02-17T10:02:26.966Z,12.10
2019-02-17T10:04:54.377Z,11.33
2019-02-17T10:07:21.583Z,13.30
2019-02-17T10:09:48.691Z,12.43
2019-02-17T10:12:16.421Z,11.30
2019-02-17T10:14:43.743Z,11.60
2019-02-17T10:17:11.071Z,13.00
2019-02-17T10:19:38.291Z,12.87
2019-02-17T10:22:05.427Z,11.40
2019-02-17T10:24:32.627Z,12.73
2019-02-17T10:26:59.972Z,13.07
2019-02-17T10:29:27.171Z,10.30
2019-02-17T10:31:54.526Z,9.90
2019-02-17T10:34:21.901Z,12.70
2019-02-17T10:36:49.216Z,13.23
2019-02-17T10:39:16.544Z,11.00
2019-02-17T10:41:43.879Z,11.77
2019-02-17T10:44:11.145Z,10.67
2019-02-17T10:46:38.466Z,9.43
2019-02-17T10:49:05.858Z,9.67
2019-02-17T10:51:33.084Z,11.57
2019-02-17T10:54:00.295Z,12.30
2019-02-17T10:56:27.752Z,10.90
2019-02-17T10:58:55.047Z,11.47
2019-02-17T11:01:22.388Z,11.37
2019-02-17T11:04:06.461Z,12.20
2019-02-17T11:06:33.792Z,10.37
2019-02-17T11:09:01.003Z,9.30
2019-02-17T11:11:28.290Z,10.67
2019-02-17T11:13:55.392Z,9.33
2019-02-17T11:16:22.601Z,9.73
2019-02-17T11:18:51.935Z,9.50
2019-02-17T11:21:19.033Z,9.87
2019-02-17T11:23:46.271Z,8.37
2019-02-17T11:26:13.598Z,8.07
2019-02-17T11:28:40.808Z,7.40
2019-02-17T11:31:08.133Z,6.63
2019-02-17T11:33:35.460Z,8.60
2019-02-17T11:36:02.783Z,9.73
2019-02-17T11:38:29.987Z,8.43
2019-02-17T11:40:57.221Z,9.13
2019-02-17T11:43:24.447Z,8.83
2019-02-17T11:45:51.673Z,10.10
2019-02-17T11:48:19.007Z,6.97
2019-02-17T11:50:46.240Z,9.93
2019-02-17T11:53:13.500Z,8.53
2019-02-17T11:55:40.803Z,8.83
2019-02-17T11:58:08.026Z,9.33
2019-02-17T12:00:35.136Z,8.83
2019-02-17T12:03:07.882Z,10.30
2019-02-17T12:05:31.519Z,10.30
2019-02-17T12:07:58.775Z,11.27
2019-02-17T12:10:26.005Z,9.37
2019-02-17T12:12:53.404Z,11.60
2019-02-17T12:15:20.626Z,9.57
2019-02-17T12:17:48.076Z,7.60
2019-02-17T12:20:30.576Z,10.23
2019-02-17T12:23:02.617Z,11.00
2019-02-17T12:25:41.048Z,8.57
2019-02-17T12:28:16.771Z,9.33
2019-02-17T12:30:46.208Z,8.73
2019-02-17T12:33:19.153Z,9.90
2019-02-17T12:35:42.638Z,8.20
2019-02-17T12:38:09.903Z,8.97
2019-02-17T12:40:37.210Z,9.93
2019-02-17T12:43:04.587Z,8.83
2019-02-17T12:45:31.907Z,8.43
2019-02-17T12:47:59.141Z,9.80
2019-02-17T12:50:26.388Z,9.67
2019-02-17T12:52:53.695Z,7.53
2019-02-17T12:55:20.899Z,8.33
2019-02-17T12:57:48.126Z,8.70
2019-02-17T13:00:16.695Z,9.57
2019-02-17T13:02:44.024Z,10.67
2019-02-17T13:05:11.308Z,9.13
2019-02-17T13:07:38.563Z,7.07
2019-02-17T13:10:06.666Z,10.07
2019-02-17T13:12:33.940Z,8.47
2019-02-17T13:15:01.256Z,9.53
2019-02-17T13:17:28.589Z,8.77
2019-02-17T13:19:55.722Z,9.50
2019-02-17T13:22:23.191Z,9.97
2019-02-17T13:24:50.426Z,12.77
2019-02-17T13:27:17.736Z,11.70
2019-02-17T13:29:45.080Z,10.30
2019-02-17T13:32:12.287Z,11.73
2019-02-17T13:34:39.658Z,13.50
2019-02-17T13:37:06.967Z,9.70
2019-02-17T13:39:34.067Z,11.10
2019-02-17T13:42:01.396Z,11.43
2019-02-17T13:44:28.611Z,11.13
2019-02-17T13:46:55.757Z,9.37
2019-02-17T13:49:23.088Z,10.00
2019-02-17T13:51:50.440Z,11.53
2019-02-17T13:54:17.783Z,11.90
2019-02-17T13:56:45.076Z,11.47
2019-02-17T13:59:12.432Z,8.23
2019-02-17T14:01:39.836Z,11.67
2019-02-17T14:04:07.147Z,11.40
2019-02-17T14:06:34.472Z,10.77
2019-02-17T14:09:01.839Z,11.53
2019-02-17T14:11:29.060Z,12.23
2019-02-17T14:13:56.284Z,9.97
2019-02-17T14:16:23.492Z,11.00
2019-02-17T14:18:50.837Z,10.10
2019-02-17T14:21:18.203Z,11.97
2019-02-17T14:23:45.424Z,12.30
2019-02-17T14:26:12.636Z,11.10
2019-02-17T14:28:39.891Z,10.57
2019-02-17T14:31:07.211Z,10.73
2019-02-17T14:33:34.351Z,10.37
2019-02-17T14:36:01.688Z,10.10
2019-02-17T14:38:29.017Z,8.57
2019-02-17T14:40:56.324Z,10.03
2019-02-17T14:43:23.651Z,12.17
2019-02-17T14:45:50.964Z,10.73
2019-02-17T14:48:18.194Z,9.13
2019-02-17T14:50:45.428Z,9.90
2019-02-17T14:53:12.761Z,9.67
2019-02-17T14:55:39.981Z,10.37
2019-02-17T14:58:07.300Z,10.17
2019-02-17T15:00:34.597Z,11.33
2019-02-17T15:03:01.927Z,10.23
2019-02-17T15:05:29.236Z,12.77
2019-02-17T15:07:56.468Z,9.03
2019-02-17T15:10:23.786Z,13.27
2019-02-17T15:12:51.028Z,10.33
2019-02-17T15:15:18.327Z,11.23
2019-02-17T15:17:45.632Z,12.57
2019-02-17T15:20:12.979Z,12.07
2019-02-17T15:22:40.262Z,11.50
2019-02-17T15:25:08.707Z,11.67
2019-02-17T15:27:36.030Z,10.50
2019-02-17T15:30:04.248Z,12.93
2019-02-17T15:32:31.601Z,11.23
2019-02-17T15:34:58.901Z,11.57
2019-02-17T15:37:45.743Z,9.47
2019-02-17T15:40:13.100Z,12.53
2019-02-17T15:42:42.925Z,11.93
2019-02-17T15:45:10.308Z,13.43
2019-02-17T15:47:37.933Z,12.33
2019-02-17T15:50:06.851Z,14.00
2019-02-17T15:52:34.441Z,11.07
2019-02-17T15:55:02.122Z,13.17
2019-02-17T15:57:29.783Z,14.63
2019-02-17T15:59:57.240Z,13.83
2019-02-17T16:02:24.599Z,10.67
2019-02-17T16:04:52.166Z,13.53
2019-02-17T16:07:19.595Z,9.90
2019-02-17T16:09:47.207Z,13.73
2019-02-17T16:12:14.642Z,14.20
2019-02-17T16:14:42.016Z,11.50
2019-02-17T16:17:09.641Z,12.43
2019-02-17T16:19:36.988Z,13.27
2019-02-17T16:22:04.443Z,14.63
2019-02-17T16:24:32.015Z,13.30
2019-02-17T16:26:59.315Z,18.50
2019-02-17T16:29:26.855Z,17.83
2019-02-17T16:31:54.423Z,17.30
2019-02-17T16:34:21.687Z,16.30
2019-02-17T16:36:49.373Z,17.10
2019-02-17T16:39:16.797Z,16.63
2019-02-17T16:41:44.433Z,18.77
2019-02-17T16:44:11.839Z,14.33
2019-02-17T16:46:39.383Z,13.13
2019-02-17T16:49:06.712Z,12.80
2019-02-17T16:51:33.968Z,12.30
2019-02-17T16:54:01.290Z,13.73
2019-02-17T16:56:28.636Z,15.83
2019-02-17T16:58:55.896Z,13.47
2019-02-17T17:01:23.286Z,12.27
2019-02-17T17:03:50.561Z,14.17
2019-02-17T17:06:17.906Z,14.47
2019-02-17T17:08:45.377Z,14.70
2019-02-17T17:11:12.818Z,14.33
2019-02-17T17:13:40.164Z,10.90
2019-02-17T17:16:07.668Z,10.33
2019-02-17T17:18:35.047Z,14.43
2019-02-17T17:21:02.386Z,11.20
2019-02-17T17:23:29.776Z,9.80
2019-02-17T17:25:57.267Z,9.23
2019-02-17T17:28:25.950Z,7.20
2019-02-17T17:30:53.404Z,9.40
2019-02-17T17:33:20.664Z,8.20
2019-02-17T17:35:48.002Z,12.07
2019-02-17T17:38:15.320Z,9.93
2019-02-17T17:40:42.726Z,12.80
2019-02-17T17:43:10.059Z,16.97
2019-02-17T17:45:37.476Z,15.90
2019-02-17T17:48:04.798Z,14.87
2019-02-17T17:50:32.032Z,22.10
2019-02-17T17:52:59.383Z,20.10
2019-02-17T17:55:28.445Z,19.37
2019-02-17T17:57:55.764Z,17.57
2019-02-17T18:00:24.107Z,23.13
2019-02-17T18:02:51.430Z,16.33
2019-02-17T18:05:18.656Z,20.30
2019-02-17T18:07:45.983Z,18.90
2019-02-17T18:10:13.395Z,20.00
2019-02-17T18:12:40.743Z,22.00
2019-02-17T18:15:09.548Z,21.83
2019-02-17T18:17:36.884Z,27.33
2019-02-17T18:20:04.839Z,25.47
2019-02-17T18:22:32.044Z,20.03
2019-02-17T18:24:59.288Z,22.03
2019-02-17T18:27:26.603Z,25.30
2019-02-17T18:29:53.902Z,26.03
2019-02-17T18:32:21.183Z,23.03
2019-02-17T18:34:48.400Z,28.90
2019-02-17T18:37:15.619Z,25.23
2019-02-17T18:39:42.843Z,25.10
2019-02-17T18:42:10.061Z,25.27
2019-02-17T18:44:37.378Z,29.53
2019-02-17T18:47:04.796Z,29.83
2019-02-17T18:49:32.052Z,28.23
2019-02-17T18:51:59.264Z,37.80
2019-02-17T18:54:26.564Z,26.37
2019-02-17T18:56:53.932Z,23.07
2019-02-17T18:59:21.144Z,27.03
2019-02-17T19:01:48.379Z,22.13
2019-02-17T19:04:15.575Z,19.13
2019-02-17T19:06:42.802Z,26.83
2019-02-17T19:09:10.000Z,23.93
2019-02-17T19:11:37.340Z,24.83
2019-02-17T19:14:04.664Z,25.03
2019-02-17T19:16:32.063Z,21.17
2019-02-17T19:18:59.368Z,20.80
2019-02-17T19:21:27.407Z,26.10
2019-02-17T19:23:54.807Z,21.07
2019-02-17T19:26:22.187Z,25.53
2019-02-17T19:28:49.521Z,25.27
2019-02-17T19:31:16.727Z,25.87
2019-02-17T19:33:43.984Z,20.07
2019-02-17T19:36:11.189Z,24.77
2019-02-17T19:38:38.586Z,21.20
2019-02-17T19:41:05.934Z,23.40
2019-02-17T19:43:33.295Z,20.23
2019-02-17T19:46:00.514Z,23.43
2019-02-17T19:48:27.715Z,25.57
2019-02-17T19:50:55.096Z,32.53
2019-02-17T19:53:22.196Z,25.83
2019-02-17T19:55:49.320Z,30.70
2019-02-17T19:58:16.664Z,38.60
2019-02-17T20:00:43.873Z,29.93
2019-02-17T20:03:39.691Z,25.83
2019-02-17T20:06:07.011Z,26.17
2019-02-17T20:08:34.329Z,27.00
2019-02-17T20:11:01.679Z,36.23
2019-02-17T20:13:29.017Z,37.90
2019-02-17T20:15:56.295Z,41.27
2019-02-17T20:18:23.654Z,36.30
2019-02-17T20:20:50.947Z,32.73
2019-02-17T20:23:18.591Z,39.73
2019-02-17T20:25:45.912Z,33.43
2019-02-17T20:28:13.260Z,33.40
2019-02-17T20:30:40.578Z,34.47
2019-02-17T20:33:07.915Z,34.37
2019-02-17T20:35:35.119Z,34.87
2019-02-17T20:38:02.452Z,31.97
2019-02-17T20:40:29.783Z,34.90
2019-02-17T20:42:57.153Z,28.53
2019-02-17T20:45:24.513Z,29.97
2019-02-17T20:47:51.913Z,26.37
2019-02-17T20:50:19.251Z,29.23
2019-02-17T20:52:46.579Z,34.33
2019-02-17T20:55:13.887Z,31.53
2019-02-17T20:57:41.224Z,33.10
2019-02-17T21:00:08.717Z,30.87
2019-02-17T21:02:36.117Z,33.50
2019-02-17T21:05:03.836Z,34.73
2019-02-17T21:07:30.972Z,31.53
2019-02-17T21:09:58.309Z,28.40
2019-02-17T21:12:25.687Z,26.80
2019-02-17T21:14:52.995Z,29.80
2019-02-17T21:17:20.265Z,23.33
2019-02-17T21:19:47.557Z,27.73
2019-02-17T21:22:14.790Z,24.67
2019-02-17T21:24:42.126Z,24.53
2019-02-17T21:27:09.459Z,23.17
2019-02-17T21:29:36.676Z,22.23
2019-02-17T21:32:04.046Z,28.47
2019-02-17T21:34:31.387Z,29.60
2019-02-17T21:36:58.603Z,26.33
2019-02-17T21:39:25.976Z,30.90
2019-02-17T21:41:53.325Z,26.10
2019-02-17T21:44:20.619Z,32.23
2019-02-17T21:46:47.963Z,27.30
2019-02-17T21:49:15.275Z,27.33
2019-02-17T21:51:42.703Z,26.40
2019-02-17T21:54:09.935Z,28.67
2019-02-17T21:56:37.148Z,30.60
2019-02-17T21:59:04.494Z,28.93
2019-02-17T22:01:31.851Z,33.47
2019-02-17T22:03:59.059Z,32.30
2019-02-17T22:06:33.174Z,33.00
2019-02-17T22:08:55.541Z,33.30
2019-02-17T22:11:22.891Z,32.40
2019-02-17T22:13:50.187Z,31.37
2019-02-17T22:16:17.420Z,32.33
2019-02-17T22:18:44.752Z,31.03
2019-02-17T22:21:11.968Z,26.67
2019-02-17T22:23:40.089Z,30.67
2019-02-17T22:26:07.449Z,32.43
2019-02-17T22:28:34.755Z,38.50
2019-02-17T22:31:02.093Z,32.70
2019-02-17T22:33:29.392Z,26.37
2019-02-17T22:35:56.725Z,29.90
2019-02-17T22:38:23.957Z,28.70
2019-02-17T22:40:51.187Z,24.87
2019-02-17T22:43:18.429Z,30.27
2019-02-17T22:45:45.756Z,25.83
2019-02-17T22:48:13.090Z,29.60
2019-02-17T22:50:40.453Z,31.27
2019-02-17T22:53:07.751Z,25.13
2019-02-17T22:55:34.967Z,33.87
2019-02-17T22:58:02.220Z,35.00
2019-02-17T23:00:49.913Z,41.67
2019-02-17T23:03:17.643Z,44.03
2019-02-17T23:05:44.893Z,46.70
2019-02-17T23:08:12.139Z,57.67
2019-02-17T23:10:39.456Z,54.07
2019-02-17T23:13:06.807Z,54.77
2019-02-17T23:15:34.143Z,50.90
2019-02-17T23:18:01.474Z,48.30
2019-02-17T23:20:28.686Z,45.10
2019-02-17T23:22:55.922Z,49.50
2019-02-17T23:25:23.537Z,54.40
2019-02-17T23:27:50.881Z,55.10
2019-02-17T23:30:18.252Z,62.57
2019-02-17T23:32:45.595Z,65.43
2019-02-17T23:35:12.726Z,43.97
2019-02-17T23:37:39.935Z,47.80
2019-02-17T23:40:07.615Z,43.37
2019-02-17T23:42:34.928Z,45.53
2019-02-17T23:45:02.213Z,44.67
2019-02-17T23:47:29.747Z,42.57
2019-02-17T23:49:57.075Z,43.80
2019-02-17T23:52:24.416Z,53.03
2019-02-17T23:54:51.848Z,50.80
2019-02-17T23:57:19.188Z,60.43
2019-02-17T23:59:46.415Z,57.50
